Time;durP1;ratioP1;P1;durP2;ratioP2;P2;SDS_P1;SDS_P2;PMS_P1;PMS_P2;Temp;Humidity;BMP_temperature;BMP_pressure;BME280_temperature;BME280_humidity;BME280_pressure;Samples;Min_cycle;Max_cycle;Signal;HPM_P1;HPM_P2
2022/01/18 00:00:57;;;;;;;2.25;0.80;;;;;;;8.11;0.00;60892.56;4865877;28;20040;-87
2022/01/18 00:03:36;;;;;;;2.95;1.35;;;;;;;8.41;0.00;60892.56;4849421;28;20104;-86
2022/01/18 00:06:15;;;;;;;1.65;1.02;;;;;;;-145.06;0.00;60892.56;4850462;28;20030;-88
2022/01/18 00:08:53;;;;;;;2.33;0.93;;;;;;;-145.06;0.00;60892.56;4850715;28;20049;-88
2022/01/18 00:11:43;;;;;;;2.70;0.95;;;;;;;-145.06;0.00;60892.56;4850715;28;20037;-86
2022/01/18 00:14:55;;;;;;;1.73;0.80;;;;;;;-145.06;0.00;60892.56;4845591;28;20786;-87
2022/01/18 00:17:40;;;;;;;3.40;1.13;;;;;;;-145.06;0.00;60892.56;4851074;28;20755;-88
2022/01/18 00:20:31;;;;;;;2.85;1.08;;;;;;;9.38;0.00;60892.56;4853778;28;20289;-88
2022/01/18 00:23:12;;;;;;;2.78;0.98;;;;;;;-145.06;0.00;60892.56;4852342;28;20033;-88
2022/01/18 00:25:55;;;;;;;3.97;1.10;;;;;;;-145.06;0.00;60892.56;4854645;28;20042;-87
2022/01/18 00:28:36;;;;;;;1.45;0.85;;;;;;;-145.06;0.00;60892.56;4846068;28;20037;-87
2022/01/18 00:34:12;;;;;;;3.35;1.05;;;;;;;8.73;0.00;60892.56;4847908;28;20037;-88
2022/01/18 00:39:30;;;;;;;2.58;0.77;;;;;;;8.73;0.00;60892.56;4848706;28;20033;-88
2022/01/18 00:42:09;;;;;;;4.70;1.42;;;;;;;8.41;0.00;60892.56;4847680;28;20053;-87
2022/01/18 00:44:49;;;;;;;3.28;0.90;;;;;;;-145.06;0.00;60892.56;4862841;28;20037;-87
2022/01/18 00:47:28;;;;;;;2.85;0.90;;;;;;;9.38;0.00;60892.56;4844367;28;20033;-87
2022/01/18 00:50:09;;;;;;;2.50;1.00;;;;;;;-145.06;0.00;60892.56;4847927;28;20033;-88
2022/01/18 00:52:52;;;;;;;2.85;0.93;;;;;;;-145.06;0.00;60892.56;4842792;28;20037;-87
2022/01/18 00:55:35;;;;;;;4.93;1.10;;;;;;;-145.06;0.00;60892.56;4856871;28;20120;-87
2022/01/18 00:58:14;;;;;;;1.13;0.63;;;;;;;-145.06;0.00;60892.56;4844079;28;20065;-89
2022/01/18 01:00:53;;;;;;;5.85;1.48;;;;;;;-145.06;0.00;60892.56;4845539;28;20037;-87
2022/01/18 01:03:32;;;;;;;4.40;0.98;;;;;;;-145.06;0.00;60892.56;4845154;28;20125;-88
2022/01/18 01:06:12;;;;;;;3.08;0.90;;;;;;;-145.06;0.00;60892.56;4860848;28;20064;-87
2022/01/18 01:08:52;;;;;;;2.08;0.80;;;;;;;-145.06;0.00;60892.56;4860331;28;20049;-88
2022/01/18 01:11:32;;;;;;;3.65;1.10;;;;;;;-145.06;0.00;60892.56;4847891;28;20037;-88
2022/01/18 01:14:17;;;;;;;2.28;1.05;;;;;;;-145.06;0.00;60892.56;4845925;28;20037;-88
2022/01/18 01:17:04;;;;;;;1.75;0.70;;;;;;;8.08;0.00;60892.56;4865249;28;20029;-88
2022/01/18 01:34:48;;;;;;;4.30;1.02;;;;;;;-145.06;0.00;60892.56;4849806;28;20044;-89
2022/01/18 01:43:27;;;;;;;2.60;1.00;;;;;;;-145.06;0.00;60892.56;4849239;28;20029;-88
2022/01/18 01:46:06;;;;;;;3.90;0.90;;;;;;;-145.06;0.00;60892.56;4848827;28;20029;-88
2022/01/18 01:48:51;;;;;;;6.65;1.02;;;;;;;-145.06;0.00;60892.56;4850062;28;20060;-89
2022/01/18 01:51:31;;;;;;;3.72;1.25;;;;;;;-145.06;0.00;60892.56;4850735;28;20041;-88
2022/01/18 01:54:11;;;;;;;3.63;1.33;;;;;;;8.08;0.00;60892.56;4846449;28;20061;-88
2022/01/18 01:56:50;;;;;;;2.65;1.23;;;;;;;7.98;0.00;60892.56;4863400;28;20033;-87
2022/01/18 01:59:29;;;;;;;2.60;1.27;;;;;;;-145.06;0.00;60892.56;4850188;28;20041;-88
2022/01/18 02:02:11;;;;;;;2.15;1.15;;;;;;;-145.06;0.00;60892.56;4850169;28;20045;-87
2022/01/18 02:04:50;;;;;;;2.63;1.00;;;;;;;-145.06;0.00;60892.56;4850736;28;20820;-87
2022/01/18 02:07:29;;;;;;;5.72;1.48;;;;;;;-145.06;0.00;60892.56;4852174;28;20033;-87
2022/01/18 02:10:10;;;;;;;7.30;1.50;;;;;;;-145.06;0.00;60892.56;4849226;28;20108;-87
2022/01/18 02:12:49;;;;;;;5.60;1.75;;;;;;;7.98;0.00;60892.56;4866034;28;20034;-87
2022/01/18 02:15:28;;;;;;;4.10;1.20;;;;;;;7.96;0.00;60892.56;4848658;28;20060;-88
2022/01/18 02:24:06;;;;;;;6.88;1.52;;;;;;;7.91;0.00;60892.56;4846272;28;20545;-88
2022/01/18 02:26:46;;;;;;;3.65;1.42;;;;;;;-145.06;0.00;60892.56;4857588;28;20026;-88
2022/01/18 02:29:25;;;;;;;4.63;1.60;;;;;;;-145.06;0.00;60892.56;4851709;28;20026;-88
2022/01/18 02:32:05;;;;;;;6.20;1.75;;;;;;;-145.06;0.00;60892.56;4859684;28;20037;-89
2022/01/18 02:34:44;;;;;;;5.00;1.58;;;;;;;-145.06;0.00;60892.56;4859456;28;20494;-88
2022/01/18 02:37:22;;;;;;;5.87;1.57;;;;;;;-145.06;0.00;60892.56;4849615;28;20447;-87
2022/01/18 02:40:02;;;;;;;4.07;1.43;;;;;;;-145.06;0.00;60892.56;4849221;28;20099;-86
2022/01/18 02:42:45;;;;;;;5.88;1.63;;;;;;;-145.06;0.00;60892.56;4846502;28;20280;-88
2022/01/18 02:45:24;;;;;;;2.38;1.33;;;;;;;8.00;0.00;60892.56;4846429;28;20034;-88
2022/01/18 02:48:04;;;;;;;4.57;1.60;;;;;;;-145.06;0.00;60892.56;4854293;28;20837;-88
2022/01/18 02:50:44;;;;;;;4.20;1.83;;;;;;;-145.06;0.00;60892.56;4858154;28;20041;-87
2022/01/18 02:53:22;;;;;;;6.28;1.80;;;;;;;-145.06;0.00;60892.56;4851631;28;20041;-88
2022/01/18 02:56:01;;;;;;;2.88;1.52;;;;;;;-145.06;0.00;60892.56;4847592;28;20542;-88
2022/01/18 02:58:40;;;;;;;4.75;1.85;;;;;;;8.08;0.00;60892.56;4844731;28;20033;-87
2022/01/18 03:04:17;;;;;;;3.35;1.45;;;;;;;7.89;0.00;60892.56;4849658;28;20120;-87
2022/01/18 03:06:56;;;;;;;5.68;1.70;;;;;;;-145.06;0.00;60892.56;4852958;28;20049;-87
2022/01/18 03:09:35;;;;;;;2.90;1.40;;;;;;;7.88;0.00;60892.56;4862201;28;20034;-88
2022/01/18 03:12:15;;;;;;;3.38;1.55;;;;;;;-145.06;0.00;60892.56;4864786;28;20116;-87
2022/01/18 03:14:54;;;;;;;4.88;1.80;;;;;;;7.90;0.00;60892.56;4848551;28;20033;-87
2022/01/18 03:17:33;;;;;;;3.60;1.23;;;;;;;7.91;0.00;60892.56;4851670;28;20041;-86
2022/01/18 03:20:15;;;;;;;3.50;1.77;;;;;;;-145.06;0.00;60892.56;4862808;28;20041;-87
2022/01/18 03:22:54;;;;;;;5.57;1.55;;;;;;;-145.06;0.00;60892.56;4849265;28;20045;-88
2022/01/18 03:28:14;;;;;;;3.80;1.40;;;;;;;7.93;0.00;60892.56;4850665;28;20045;-88
2022/01/18 03:30:57;;;;;;;5.10;1.65;;;;;;;-145.06;0.00;60892.56;4847524;28;20073;-88
2022/01/18 03:33:36;;;;;;;4.63;1.80;;;;;;;-145.06;0.00;60892.56;4850871;28;20048;-87
2022/01/18 03:36:15;;;;;;;5.40;1.80;;;;;;;-145.06;0.00;60892.56;4847033;28;20025;-88
2022/01/18 03:38:54;;;;;;;6.32;2.13;;;;;;;-145.06;0.00;60892.56;4846475;28;20460;-87
2022/01/18 03:41:33;;;;;;;4.70;1.80;;;;;;;-145.06;0.00;60892.56;4847980;28;20049;-87
2022/01/18 03:44:12;;;;;;;4.23;1.70;;;;;;;-145.06;0.00;60892.56;4850241;28;20045;-88
2022/01/18 03:46:53;;;;;;;2.53;1.17;;;;;;;7.92;0.00;60892.56;4849685;28;20284;-88
2022/01/18 03:49:36;;;;;;;3.10;1.73;;;;;;;-145.06;0.00;60892.56;4859404;28;20190;-87
2022/01/18 03:52:15;;;;;;;5.55;1.70;;;;;;;-145.06;0.00;60892.56;4862258;28;20041;-88
2022/01/18 03:54:54;;;;;;;2.55;1.60;;;;;;;-145.06;0.00;60892.56;4861715;28;20041;-87
2022/01/18 03:57:33;;;;;;;3.90;1.60;;;;;;;7.89;0.00;60892.56;4846436;28;20033;-88
2022/01/18 04:00:15;;;;;;;3.97;1.65;;;;;;;7.93;0.00;60892.56;4846496;28;20042;-87
2022/01/18 04:02:55;;;;;;;3.85;1.38;;;;;;;7.90;0.00;60892.56;4846570;28;20045;-87
2022/01/18 04:05:34;;;;;;;5.55;2.28;;;;;;;7.90;0.00;60892.56;4846566;28;20029;-87
2022/01/18 04:08:14;;;;;;;4.47;2.00;;;;;;;7.85;0.00;60892.56;4848589;28;20711;-88
2022/01/18 04:10:53;;;;;;;4.47;1.52;;;;;;;7.85;0.00;60892.56;4845204;28;20276;-88
2022/01/18 04:13:32;;;;;;;5.13;2.17;;;;;;;-145.06;0.00;60892.56;4859845;28;20041;-86
2022/01/18 04:16:13;;;;;;;6.20;2.23;;;;;;;-145.06;0.00;60892.56;4846891;28;20029;-87
2022/01/18 04:19:10;;;;;;;5.43;2.13;;;;;;;-145.06;0.00;60892.56;4845760;28;20068;-88
2022/01/18 04:27:55;;;;;;;3.38;1.80;;;;;;;-145.06;0.00;60892.56;4848578;28;20056;-88
2022/01/18 04:30:35;;;;;;;4.38;1.95;;;;;;;7.70;0.00;60892.56;4850000;28;20037;-87
2022/01/18 04:33:14;;;;;;;4.60;2.03;;;;;;;-145.06;0.00;60892.56;4847961;28;20029;-86
2022/01/18 04:35:53;;;;;;;3.23;1.27;;;;;;;-145.06;0.00;60892.56;4847238;28;20037;-88
2022/01/18 04:38:32;;;;;;;4.40;2.07;;;;;;;7.65;0.00;60892.56;4845764;28;20268;-88
2022/01/18 04:41:16;;;;;;;;;;;;;;;-145.06;0.00;60892.56;4846282;28;20491;-88
2022/01/18 04:49:35;;;;;;;6.60;2.22;;;;;;;7.62;0.00;60892.56;4851948;28;20033;-87
2022/01/18 04:52:14;;;;;;;3.40;1.87;;;;;;;-145.06;0.00;60892.56;4854290;28;20526;-87
2022/01/18 04:54:59;;;;;;;3.40;1.60;;;;;;;-145.06;0.00;60892.56;4849629;28;20037;-87
2022/01/18 04:57:53;;;;;;;5.60;2.08;;;;;;;-145.06;0.00;60892.56;4855009;28;20350;-87
2022/01/18 05:00:33;;;;;;;4.68;1.85;;;;;;;7.60;0.00;60892.56;4853173;28;20037;-87
2022/01/18 05:03:12;;;;;;;5.68;1.92;;;;;;;-145.06;0.00;60892.56;4852672;28;20037;-87
2022/01/18 05:05:54;;;;;;;7.13;2.67;;;;;;;7.58;0.00;60892.56;4854410;28;20037;-87
2022/01/18 05:08:35;;;;;;;8.15;2.42;;;;;;;7.76;0.00;60892.56;4854060;28;20033;-87
2022/01/18 05:11:16;;;;;;;7.00;2.22;;;;;;;-145.06;0.00;60892.56;4852187;28;20060;-88
2022/01/18 05:25:13;;;;;;;4.95;2.47;;;;;;;-145.06;0.00;60892.56;4851414;28;20033;-87
2022/01/18 05:27:52;;;;;;;8.80;2.77;;;;;;;-145.06;0.00;60892.56;4868643;28;20037;-86
2022/01/18 05:30:31;;;;;;;8.17;2.70;;;;;;;-145.06;0.00;60892.56;4851448;28;20260;-88
2022/01/18 05:33:10;;;;;;;5.20;2.60;;;;;;;-145.06;0.00;60892.56;4849237;28;20033;-88
2022/01/18 05:35:50;;;;;;;5.55;2.40;;;;;;;-145.06;0.00;60892.56;4852889;28;20384;-87
2022/01/18 05:38:32;;;;;;;4.20;2.03;;;;;;;-145.06;0.00;60892.56;4852685;28;20029;-87
2022/01/18 05:41:12;;;;;;;4.45;2.28;;;;;;;-145.06;0.00;60892.56;4850731;28;20734;-88
2022/01/18 05:43:51;;;;;;;;;;;;;;;-145.06;0.00;60892.56;4849015;28;20029;-87
2022/01/18 05:46:30;;;;;;;3.67;2.28;;;;;;;-145.06;0.00;60892.56;4856388;28;19921;-87
2022/01/18 05:49:12;;;;;;;5.28;2.80;;;;;;;-145.06;0.00;60892.56;4851882;28;20037;-88
2022/01/18 05:51:51;;;;;;;6.50;2.55;;;;;;;-145.06;0.00;60892.56;4848952;28;20593;-89
2022/01/18 05:54:30;;;;;;;3.55;2.40;;;;;;;-145.06;0.00;60892.56;4845184;28;20535;-88
2022/01/18 05:57:09;;;;;;;4.80;2.73;;;;;;;-145.06;0.00;60892.56;4849205;28;20388;-88
2022/01/18 05:59:50;;;;;;;6.07;2.50;;;;;;;-145.06;0.00;60892.56;4849211;28;20296;-88
2022/01/18 06:08:18;;;;;;;5.18;2.22;;;;;;;-145.06;0.00;60892.56;4856207;28;20069;-87
2022/01/18 06:10:57;;;;;;;5.43;2.30;;;;;;;-145.06;0.00;60892.56;4856511;28;20041;-87
2022/01/18 06:13:37;;;;;;;5.55;2.20;;;;;;;-145.06;0.00;60892.56;4851239;28;20037;-88
2022/01/18 06:16:16;;;;;;;7.10;2.42;;;;;;;-145.06;0.00;60892.56;4868250;28;20029;-88
2022/01/18 06:18:55;;;;;;;4.82;2.38;;;;;;;-145.06;0.00;60892.56;4850005;28;21837;-88
2022/01/18 06:21:34;;;;;;;3.38;2.22;;;;;;;-145.06;0.00;60892.56;4851627;28;20033;-87
2022/01/18 06:24:13;;;;;;;7.27;2.50;;;;;;;-145.06;0.00;60892.56;4847658;28;20049;-87
2022/01/18 06:26:52;;;;;;;5.00;2.67;;;;;;;-145.06;0.00;60892.56;4850711;28;20108;-88
2022/01/18 06:29:31;;;;;;;6.37;2.70;;;;;;;-145.06;0.00;60892.56;4854974;28;20045;-87
2022/01/18 06:32:10;;;;;;;5.67;2.47;;;;;;;-145.06;0.00;60892.56;4863353;28;20033;-87
2022/01/18 06:34:49;;;;;;;5.13;2.53;;;;;;;-145.06;0.00;60892.56;4854724;28;20507;-87
2022/01/18 06:37:28;;;;;;;5.53;2.40;;;;;;;-145.06;0.00;60892.56;4856425;28;20065;-88
2022/01/18 06:40:09;;;;;;;5.25;2.35;;;;;;;-145.06;0.00;60892.56;4857143;28;20069;-89
2022/01/18 06:42:48;;;;;;;3.67;2.38;;;;;;;-145.06;0.00;60892.56;4861706;28;20033;-88
2022/01/18 06:45:27;;;;;;;5.75;2.40;;;;;;;-145.06;0.00;60892.56;4853456;28;20029;-88
2022/01/18 06:48:07;;;;;;;5.38;2.50;;;;;;;-145.06;0.00;60892.56;4854601;28;20029;-87
2022/01/18 06:50:46;;;;;;;4.65;2.25;;;;;;;-145.06;0.00;60892.56;4855151;28;20053;-87
2022/01/18 06:53:26;;;;;;;5.60;2.85;;;;;;;-145.06;0.00;60892.56;4855637;28;20108;-87
2022/01/18 06:56:05;;;;;;;5.32;2.72;;;;;;;-145.06;0.00;60892.56;4856322;28;20030;-88
2022/01/18 06:58:44;;;;;;;6.00;2.63;;;;;;;-145.06;0.00;60892.56;4856672;28;20041;-89
2022/01/18 07:01:24;;;;;;;3.40;2.15;;;;;;;-145.06;0.00;60892.56;4856198;28;20029;-88
2022/01/18 07:04:03;;;;;;;4.20;2.33;;;;;;;-145.06;0.00;60892.56;4855379;28;20180;-87
2022/01/18 07:06:42;;;;;;;5.00;2.40;;;;;;;-145.06;0.00;60892.56;4856890;28;20021;-88
2022/01/18 07:09:23;;;;;;;5.30;2.65;;;;;;;-145.06;0.00;60892.56;4861471;28;20033;-88
2022/01/18 07:12:08;;;;;;;6.53;2.55;;;;;;;-145.06;0.00;60892.56;4862433;28;20467;-87
2022/01/18 07:14:47;;;;;;;5.88;2.15;;;;;;;-145.06;0.00;60892.56;4869271;28;20435;-87
2022/01/18 07:17:26;;;;;;;4.50;2.35;;;;;;;-145.06;0.00;60892.56;4876022;28;20490;-88
2022/01/18 07:20:06;;;;;;;5.70;3.03;;;;;;;-145.06;0.00;60892.56;4874997;28;20033;-87
2022/01/18 07:22:46;;;;;;;4.53;2.38;;;;;;;-145.06;0.00;60892.56;4864216;28;20605;-88
2022/01/18 07:25:26;;;;;;;5.45;2.97;;;;;;;-145.06;0.00;60892.56;4847995;28;20029;-87
2022/01/18 07:28:05;;;;;;;5.43;2.95;;;;;;;-145.06;0.00;60892.56;4855910;28;20057;-88
2022/01/18 07:30:45;;;;;;;6.20;3.00;;;;;;;-145.06;0.00;60892.56;4856284;28;20025;-87
2022/01/18 07:33:24;;;;;;;4.35;2.63;;;;;;;-145.06;0.00;60892.56;4846236;28;20109;-88
2022/01/18 07:36:03;;;;;;;4.83;2.80;;;;;;;-145.06;0.00;60892.56;4856627;28;20041;-88
2022/01/18 07:38:43;;;;;;;7.47;3.05;;;;;;;-145.06;0.00;60892.56;4843819;28;20076;-87
2022/01/18 07:41:23;;;;;;;7.97;3.20;;;;;;;-145.06;0.00;60892.56;4853056;28;20487;-88
2022/01/18 07:44:02;;;;;;;8.02;3.05;;;;;;;-145.06;0.00;60892.56;4851582;28;20025;-87
2022/01/18 07:46:41;;;;;;;5.88;3.20;;;;;;;-145.06;0.00;60892.56;4856693;28;20034;-87
2022/01/18 07:49:20;;;;;;;5.13;2.93;;;;;;;-145.06;0.00;60892.56;4868305;28;20065;-88
2022/01/18 07:51:59;;;;;;;3.92;2.22;;;;;;;-145.06;0.00;60892.56;4872277;28;20028;-87
2022/01/18 07:54:38;;;;;;;5.25;2.67;;;;;;;-145.06;0.00;60892.56;4854582;28;20026;-88
2022/01/18 07:57:19;;;;;;;6.72;2.90;;;;;;;-145.06;0.00;60892.56;4855315;28;20021;-88
2022/01/18 07:59:58;;;;;;;5.28;2.63;;;;;;;-145.06;0.00;60892.56;4854703;28;20029;-88
2022/01/18 08:02:37;;;;;;;5.55;2.70;;;;;;;-145.06;0.00;60892.56;4855979;28;20021;-88
2022/01/18 08:05:16;;;;;;;4.57;2.72;;;;;;;-145.06;0.00;60892.56;4853779;28;20030;-88
2022/01/18 08:07:56;;;;;;;7.90;2.70;;;;;;;-145.06;0.00;60892.56;4860885;28;20037;-88
2022/01/18 08:10:35;;;;;;;4.13;2.38;;;;;;;-145.06;0.00;60892.56;4849378;28;20025;-88
2022/01/18 08:13:14;;;;;;;3.90;2.40;;;;;;;-145.06;0.00;60892.56;4856123;28;20030;-88
2022/01/18 08:16:09;;;;;;;5.67;2.67;;;;;;;-145.06;0.00;60892.56;4855371;28;20057;-88
2022/01/18 08:18:50;;;;;;;3.70;2.20;;;;;;;-145.06;0.00;60892.56;4853825;28;20032;-88
2022/01/18 08:21:29;;;;;;;5.40;2.40;;;;;;;-145.06;0.00;60892.56;4857508;28;20025;-87
2022/01/18 08:24:10;;;;;;;4.28;2.15;;;;;;;-145.06;0.00;60892.56;4870384;28;20104;-88
2022/01/18 08:26:49;;;;;;;5.57;2.50;;;;;;;-145.06;0.00;60892.56;4850505;28;20114;-87
2022/01/18 08:29:29;;;;;;;5.17;2.43;;;;;;;-145.06;0.00;60892.56;4848081;28;20025;-88
2022/01/18 08:32:07;;;;;;;5.30;2.92;;;;;;;-145.06;0.00;60892.56;4850679;28;20029;-87
2022/01/18 08:34:46;;;;;;;5.83;3.03;;;;;;;10.68;0.00;60892.56;4848415;28;20037;-87
2022/01/18 08:37:25;;;;;;;4.97;2.60;;;;;;;-145.06;0.00;60892.56;4856538;28;20022;-87
2022/01/18 08:40:05;;;;;;;6.45;3.05;;;;;;;7.65;0.00;60892.56;4854857;28;20041;-88
2022/01/18 08:42:44;;;;;;;6.30;2.72;;;;;;;-145.06;0.00;60892.56;4844218;28;20116;-87
2022/01/18 08:45:23;;;;;;;5.65;2.70;;;;;;;-145.06;0.00;60892.56;4871473;28;20462;-87
2022/01/18 08:48:03;;;;;;;4.43;2.70;;;;;;;-145.06;0.00;60892.56;4863134;28;20033;-88
2022/01/18 08:50:42;;;;;;;5.28;2.97;;;;;;;-145.06;0.00;60892.56;4861173;28;20271;-87
2022/01/18 08:53:21;;;;;;;4.55;2.70;;;;;;;-145.06;0.00;60892.56;4846781;28;20030;-88
2022/01/18 08:56:01;;;;;;;5.30;2.58;;;;;;;-145.06;0.00;60892.56;4853469;28;20483;-88
2022/01/18 08:58:40;;;;;;;5.18;2.53;;;;;;;-145.06;0.00;60892.56;4855468;28;20503;-87
2022/01/18 09:01:19;;;;;;;4.45;2.88;;;;;;;-145.06;0.00;60892.56;4854687;28;20523;-87
2022/01/18 09:04:01;;;;;;;6.60;3.15;;;;;;;-145.06;0.00;60892.56;4853218;28;20483;-88
2022/01/18 09:06:40;;;;;;;5.13;2.92;;;;;;;-145.06;0.00;60892.56;4862190;28;20021;-88
2022/01/18 09:09:20;;;;;;;8.40;3.15;;;;;;;-145.06;0.00;60892.56;4855622;28;20033;-89
2022/01/18 09:11:59;;;;;;;5.68;3.00;;;;;;;-145.06;0.00;60892.56;4835598;28;20033;-88
2022/01/18 09:14:39;;;;;;;5.50;2.70;;;;;;;-145.06;0.00;60892.56;4860446;28;20621;-88
2022/01/18 09:17:18;;;;;;;6.75;2.95;;;;;;;-145.06;0.00;60892.56;4874648;28;20025;-88
2022/01/18 09:19:58;;;;;;;5.23;3.00;;;;;;;-145.06;0.00;60892.56;4866670;28;20029;-88
2022/01/18 09:22:39;;;;;;;;;;;;;;;-145.06;0.00;60892.56;4864541;28;20471;-88
2022/01/18 09:25:26;;;;;;;6.38;2.45;;;;;;;-145.06;0.00;60892.56;4860864;28;19913;-88
2022/01/18 09:28:05;;;;;;;5.43;2.78;;;;;;;-145.06;0.00;60892.56;4849936;28;20033;-87
2022/01/18 09:30:45;;;;;;;7.03;3.15;;;;;;;-145.06;0.00;60892.56;4854133;28;20033;-87
2022/01/18 09:33:24;;;;;;;;;;;;;;;-145.06;0.00;60892.56;4853447;28;20336;-87
2022/01/18 09:36:03;;;;;;;4.35;2.20;;;;;;;-145.06;0.00;60892.56;4879621;28;19917;-87
2022/01/18 09:38:43;;;;;;;5.43;2.55;;;;;;;8.41;0.00;60892.56;4852668;28;20065;-88
2022/01/18 09:41:28;;;;;;;5.20;2.87;;;;;;;-145.06;0.00;60892.56;4855428;28;20059;-88
2022/01/18 09:44:08;;;;;;;8.45;2.90;;;;;;;-145.06;0.00;60892.56;4855421;28;20041;-89
2022/01/18 09:46:51;;;;;;;5.07;2.67;;;;;;;-145.06;0.00;60892.56;4837907;28;20483;-88
2022/01/18 09:49:32;;;;;;;4.70;2.50;;;;;;;8.73;0.00;60892.56;4842184;28;20033;-87
2022/01/18 09:52:12;;;;;;;7.55;3.42;;;;;;;10.68;0.00;60892.56;4857452;28;20033;-88
2022/01/18 09:54:51;;;;;;;7.13;2.90;;;;;;;-145.06;0.00;60892.56;4871003;28;20634;-88
2022/01/18 09:57:30;;;;;;;5.07;2.47;;;;;;;-145.06;0.00;60892.56;4857190;28;20065;-88
2022/01/18 10:00:10;;;;;;;4.18;2.67;;;;;;;8.37;0.00;60892.56;4857671;28;20045;-87
2022/01/18 10:02:49;;;;;;;5.13;2.72;;;;;;;8.36;0.00;60892.56;4855354;28;20025;-88
2022/01/18 10:05:33;;;;;;;6.20;3.00;;;;;;;8.36;0.00;60892.56;4865382;28;20025;-88
2022/01/18 10:08:15;;;;;;;4.03;2.83;;;;;;;-145.06;0.00;60892.56;4877214;28;20064;-88
2022/01/18 10:10:57;;;;;;;6.55;2.97;;;;;;;-145.06;0.00;60892.56;4877791;28;20060;-88
2022/01/18 10:13:37;;;;;;;6.00;3.05;;;;;;;-145.06;0.00;60892.56;4876864;28;20037;-88
2022/01/18 10:16:21;;;;;;;;;;;;;;;-145.06;0.00;60892.56;4857727;28;20025;-88
2022/01/18 10:19:05;;;;;;;4.00;2.30;;;;;;;-145.06;0.00;60892.56;4857286;28;20256;-87
2022/01/18 10:21:49;;;;;;;5.47;2.88;;;;;;;-145.06;0.00;60892.56;4860893;28;20423;-88
2022/01/18 10:24:30;;;;;;;4.90;2.80;;;;;;;-145.06;0.00;60892.56;4855187;28;20026;-88
2022/01/18 10:27:12;;;;;;;4.95;2.65;;;;;;;-145.06;0.00;60892.56;4853496;28;20498;-88
2022/01/18 10:29:51;;;;;;;4.60;2.53;;;;;;;-145.06;0.00;60892.56;4860994;28;20037;-88
2022/01/18 10:32:37;;;;;;;3.80;2.63;;;;;;;-145.06;0.00;60892.56;4868120;28;20060;-88
2022/01/18 10:35:16;;;;;;;3.83;2.53;;;;;;;-145.06;0.00;60892.56;4870379;28;20045;-88
2022/01/18 10:37:55;;;;;;;5.03;2.57;;;;;;;187.52;0.00;60892.56;4872795;28;20032;-89
2022/01/18 10:40:35;;;;;;;3.83;2.10;;;;;;;-145.06;0.00;60892.56;4876141;28;20144;-88
2022/01/18 10:43:23;;;;;;;4.28;2.38;;;;;;;-145.06;0.00;60892.56;4838380;28;20440;-88
2022/01/18 10:46:13;;;;;;;3.55;1.90;;;;;;;8.79;0.00;60892.56;4855191;28;20037;-89
2022/01/18 10:48:52;;;;;;;5.03;2.15;;;;;;;-145.06;0.00;60892.56;4857752;28;20491;-88
2022/01/18 10:51:34;;;;;;;4.70;2.28;;;;;;;-145.06;0.00;60892.56;4857935;28;20119;-88
2022/01/18 10:54:12;;;;;;;2.92;2.10;;;;;;;8.88;0.00;60892.56;4854561;28;20045;-88
2022/01/18 10:56:51;;;;;;;5.05;2.22;;;;;;;-145.06;0.00;60892.56;4856656;28;20543;-88
2022/01/18 10:59:30;;;;;;;5.77;2.20;;;;;;;-145.06;0.00;60892.56;4856996;28;20029;-88
2022/01/18 11:02:18;;;;;;;2.75;1.73;;;;;;;-145.06;0.00;60892.56;4857673;28;20029;-89
2022/01/18 11:04:57;;;;;;;4.03;2.50;;;;;;;8.96;0.00;60892.56;4855736;28;20025;-88
2022/01/18 11:07:38;;;;;;;3.28;2.00;;;;;;;-145.06;0.00;60892.56;4865255;28;20025;-88
2022/01/18 11:10:20;;;;;;;3.17;1.77;;;;;;;-145.06;0.00;60892.56;4859728;28;20033;-88
2022/01/18 11:13:07;;;;;;;2.90;1.60;;;;;;;-145.06;0.00;60892.56;4856926;28;20060;-88
2022/01/18 11:15:49;;;;;;;5.07;1.98;;;;;;;-145.06;0.00;60892.56;4858030;28;20067;-88
2022/01/18 11:18:31;;;;;;;3.97;1.77;;;;;;;-145.06;0.00;60892.56;4851768;28;20021;-88
2022/01/18 11:21:11;;;;;;;5.82;2.10;;;;;;;-145.06;0.00;60892.56;4864602;28;20376;-87
2022/01/18 11:23:53;;;;;;;9.07;2.22;;;;;;;-145.06;0.00;60892.56;4859240;28;20033;-89
2022/01/18 11:26:32;;;;;;;5.60;2.10;;;;;;;-145.06;0.00;60892.56;4849730;28;20021;-88
2022/01/18 11:29:17;;;;;;;3.63;1.87;;;;;;;9.14;0.00;60892.56;4857681;28;20041;-88
2022/01/18 11:31:56;;;;;;;3.75;1.83;;;;;;;9.12;0.00;60892.56;4857374;28;20029;-89
2022/01/18 11:35:02;;;;;;;3.88;2.00;;;;;;;9.18;0.00;60892.56;4859636;28;20504;-89
2022/01/18 11:37:51;;;;;;;2.60;1.83;;;;;;;9.19;0.00;60892.56;4865166;28;20064;-88
2022/01/18 11:40:44;;;;;;;3.30;2.15;;;;;;;187.52;0.00;60892.56;4874901;28;20025;-88
2022/01/18 11:43:42;;;;;;;3.97;2.17;;;;;;;9.38;0.00;60892.56;4866994;28;20037;-89
2022/01/18 11:46:26;;;;;;;4.80;2.45;;;;;;;9.32;0.00;60892.56;4855242;28;20419;-88
2022/01/18 11:49:06;;;;;;;4.47;2.88;;;;;;;9.37;0.00;60892.56;4850781;28;20034;-88
2022/01/18 11:52:01;;;;;;;4.95;2.83;;;;;;;-145.06;0.00;60892.56;4861855;28;20104;-88
2022/01/18 11:57:23;;;;;;;4.03;2.65;;;;;;;-145.06;0.00;60892.56;4836847;28;20069;-88
2022/01/18 12:00:05;;;;;;;4.82;2.78;;;;;;;-145.06;0.00;60892.56;4867443;28;20041;-87
2022/01/18 12:02:47;;;;;;;3.88;2.63;;;;;;;-145.06;0.00;60892.56;4861945;28;20475;-87
2022/01/18 12:05:26;;;;;;;3.50;2.70;;;;;;;-145.06;0.00;60892.56;4857007;28;20028;-89
2022/01/18 12:08:05;;;;;;;6.80;3.07;;;;;;;-145.06;0.00;60892.56;4854116;28;20029;-88
2022/01/18 12:10:46;;;;;;;7.63;3.30;;;;;;;-145.06;0.00;60892.56;4855362;28;20292;-89
2022/01/18 12:13:34;;;;;;;4.93;3.20;;;;;;;-145.06;0.00;60892.56;4856653;28;20029;-88
2022/01/18 12:16:25;;;;;;;5.85;2.92;;;;;;;10.08;0.00;60892.56;4865471;28;20029;-88
2022/01/18 12:19:07;;;;;;;4.97;2.78;;;;;;;-145.06;0.00;60892.56;4867680;28;20025;-88
2022/01/18 12:21:46;;;;;;;4.15;3.00;;;;;;;-145.06;0.00;60892.56;4862297;28;20021;-89
2022/01/18 12:24:25;;;;;;;3.23;2.10;;;;;;;10.27;0.00;60892.56;4855187;28;20029;-88
2022/01/18 12:27:27;;;;;;;4.23;2.57;;;;;;;-145.06;0.00;60892.56;4882595;28;20371;-89
2022/01/18 12:30:38;;;;;;;2.33;1.88;;;;;;;10.44;0.00;60892.56;4853320;28;20112;-88
2022/01/18 12:33:18;;;;;;;;;;;;;;;-145.06;0.00;60892.56;4855830;28;20025;-89
2022/01/18 12:36:27;;;;;;;3.00;1.52;;;;;;;-145.06;0.00;60892.56;4862049;28;19917;-89
2022/01/18 12:39:07;;;;;;;4.63;1.92;;;;;;;-145.06;0.00;60892.56;4855190;28;20384;-89
2022/01/18 12:41:50;;;;;;;3.40;1.83;;;;;;;-145.06;0.00;60892.56;4855111;28;20034;-89
2022/01/18 12:44:43;;;;;;;4.32;1.90;;;;;;;-145.06;0.00;60892.56;4858847;28;20037;-89
2022/01/18 12:47:22;;;;;;;4.82;1.90;;;;;;;-145.06;0.00;60892.56;4865971;28;20030;-89
2022/01/18 12:50:03;;;;;;;3.43;2.07;;;;;;;-145.06;0.00;60892.56;4854971;28;20057;-89
2022/01/18 12:52:46;;;;;;;4.10;2.33;;;;;;;-145.06;0.00;60892.56;4851104;28;20033;-89
2022/01/18 12:55:25;;;;;;;3.63;2.13;;;;;;;-145.06;0.00;60892.56;4854256;28;20495;-88
2022/01/18 12:58:07;;;;;;;2.80;1.80;;;;;;;-145.06;0.00;60892.56;4852884;28;20392;-88
2022/01/18 13:00:47;;;;;;;2.42;1.70;;;;;;;-145.06;0.00;60892.56;4861503;28;20033;-89
2022/01/18 13:03:36;;;;;;;5.50;2.40;;;;;;;10.68;0.00;60892.56;4853109;28;20037;-89
2022/01/18 13:06:17;;;;;;;3.65;2.00;;;;;;;-145.06;0.00;60892.56;4854920;28;20038;-89
2022/01/18 13:08:59;;;;;;;3.15;1.95;;;;;;;-145.06;0.00;60892.56;4855269;28;20475;-89
2022/01/18 13:11:42;;;;;;;5.35;2.13;;;;;;;-145.06;0.00;60892.56;4859033;28;20034;-89
2022/01/18 13:14:25;;;;;;;4.05;2.30;;;;;;;-145.06;0.00;60892.56;4876870;28;20475;-87
2022/01/18 13:23:03;;;;;;;3.58;2.00;;;;;;;-145.06;0.00;60892.56;4859031;28;20512;-88
2022/01/18 13:25:58;;;;;;;5.13;2.15;;;;;;;-145.06;0.00;60892.56;4857316;28;20033;-88
2022/01/18 13:28:41;;;;;;;4.32;1.88;;;;;;;-145.06;0.00;60892.56;4858440;28;20022;-90
2022/01/18 13:31:25;;;;;;;3.40;1.98;;;;;;;-145.06;0.00;60892.56;4858606;28;20041;-89
2022/01/18 13:34:04;;;;;;;3.35;2.13;;;;;;;-145.06;0.00;60892.56;4858578;28;20037;-89
2022/01/18 13:36:48;;;;;;;4.40;2.10;;;;;;;-145.06;0.00;60892.56;4858028;28;20017;-89
2022/01/18 13:39:31;;;;;;;3.22;1.90;;;;;;;-145.06;0.00;60892.56;4857970;28;20495;-88
2022/01/18 13:42:14;;;;;;;3.90;1.98;;;;;;;-145.06;0.00;60892.56;4863322;28;20037;-89
2022/01/18 13:45:17;;;;;;;2.90;1.48;;;;;;;-145.06;0.00;60892.56;4873989;28;20037;-90
2022/01/18 13:48:05;;;;;;;3.75;1.98;;;;;;;-145.06;0.00;60892.56;4862733;28;20037;-89
2022/01/18 13:50:48;;;;;;;3.63;1.88;;;;;;;-145.06;0.00;60892.56;4857575;28;20045;-89
2022/01/18 13:53:30;;;;;;;3.03;1.98;;;;;;;-145.06;0.00;60892.56;4853843;28;20033;-89